sensor_id;sensor_type;location;lat;lon;timestamp;pressure;altitude;pressure_sealevel;temperature;humidity
25650;BME280;13505;45.196;5.696;2022-09-03T04:00:50;98963.63;;;19.61;99.12
25650;BME280;13505;45.196;5.696;2022-09-03T04:05:41;98968.41;;;19.67;97.73
25650;BME280;13505;45.196;5.696;2022-09-03T04:10:31;98956.72;;;19.37;97.74
25650;BME280;13505;45.196;5.696;2022-09-03T04:15:22;98957.19;;;19.42;96.17
25650;BME280;13505;45.196;5.696;2022-09-03T04:20:12;98959.28;;;19.38;96.78
25650;BME280;13505;45.196;5.696;2022-09-03T04:25:03;98959.63;;;19.24;99.23
25650;BME280;13505;45.196;5.696;2022-09-03T04:29:53;98966.66;;;19.25;99.44
25650;BME280;13505;45.196;5.696;2022-09-03T04:34:43;98967.38;;;19.27;98.84
25650;BME280;13505;45.196;5.696;2022-09-03T04:39:33;98964.75;;;19.37;97.52
25650;BME280;13505;45.196;5.696;2022-09-03T04:44:24;98955.75;;;19.38;97.09
25650;BME280;13505;45.196;5.696;2022-09-03T04:49:14;98942.13;;;19.20;98.68
25650;BME280;13505;45.196;5.696;2022-09-03T04:54:04;98948.75;;;18.83;100.00
25650;BME280;13505;45.196;5.696;2022-09-03T04:58:57;98942.63;;;18.92;100.00
25650;BME280;13505;45.196;5.696;2022-09-03T05:03:48;98949.00;;;19.13;100.00
25650;BME280;13505;45.196;5.696;2022-09-03T05:08:41;98952.00;;;19.19;99.50
25650;BME280;13505;45.196;5.696;2022-09-03T05:13:34;98936.19;;;18.95;99.78
25650;BME280;13505;45.196;5.696;2022-09-03T05:18:24;98907.78;;;18.94;98.31
25650;BME280;13505;45.196;5.696;2022-09-03T05:23:15;98928.25;;;19.05;97.37
25650;BME280;13505;45.196;5.696;2022-09-03T05:28:05;98932.00;;;19.14;96.27
25650;BME280;13505;45.196;5.696;2022-09-03T05:32:56;98933.59;;;19.05;96.55
25650;BME280;13505;45.196;5.696;2022-09-03T05:37:46;98935.72;;;19.01;95.78
25650;BME280;13505;45.196;5.696;2022-09-03T05:42:37;98955.63;;;18.97;95.87
25650;BME280;13505;45.196;5.696;2022-09-03T05:47:28;98954.78;;;18.96;97.15
25650;BME280;13505;45.196;5.696;2022-09-03T05:52:18;98953.56;;;19.01;97.47
25650;BME280;13505;45.196;5.696;2022-09-03T05:57:10;98957.38;;;19.29;97.34
25650;BME280;13505;45.196;5.696;2022-09-03T06:02:01;98952.44;;;19.46;96.20
25650;BME280;13505;45.196;5.696;2022-09-03T06:06:51;98947.28;;;19.64;95.87
25650;BME280;13505;45.196;5.696;2022-09-03T06:11:43;98942.16;;;19.82;95.70
25650;BME280;13505;45.196;5.696;2022-09-03T06:16:36;98931.38;;;19.62;95.01
25650;BME280;13505;45.196;5.696;2022-09-03T06:21:27;98944.91;;;19.61;95.43
25650;BME280;13505;45.196;5.696;2022-09-03T06:26:19;98950.38;;;19.38;97.70
25650;BME280;13505;45.196;5.696;2022-09-03T06:31:12;98949.25;;;19.09;100.00
25650;BME280;13505;45.196;5.696;2022-09-03T06:36:05;98952.13;;;19.18;100.00
25650;BME280;13505;45.196;5.696;2022-09-03T06:40:59;98953.41;;;19.45;100.00
25650;BME280;13505;45.196;5.696;2022-09-03T06:46:01;98953.22;;;19.67;100.00
25650;BME280;13505;45.196;5.696;2022-09-03T06:51:10;98950.88;;;20.35;88.78
25650;BME280;13505;45.196;5.696;2022-09-03T06:56:02;98945.38;;;20.17;90.39
25650;BME280;13505;45.196;5.696;2022-09-03T07:00:53;98937.94;;;20.40;86.80
25650;BME280;13505;45.196;5.696;2022-09-03T07:05:49;98923.41;;;20.72;85.59
25650;BME280;13505;45.196;5.696;2022-09-03T07:10:44;98921.13;;;21.55;80.28
25650;BME280;13505;45.196;5.696;2022-09-03T07:15:35;98929.16;;;21.93;78.49
25650;BME280;13505;45.196;5.696;2022-09-03T07:20:25;98913.88;;;22.21;77.25
25650;BME280;13505;45.196;5.696;2022-09-03T07:25:16;98922.88;;;22.48;75.70
25650;BME280;13505;45.196;5.696;2022-09-03T07:30:07;98938.63;;;22.61;75.11
25650;BME280;13505;45.196;5.696;2022-09-03T07:34:59;98948.00;;;22.11;74.37
25650;BME280;13505;45.196;5.696;2022-09-03T07:39:49;98968.13;;;22.25;73.81
25650;BME280;13505;45.196;5.696;2022-09-03T07:44:39;98958.31;;;22.34;72.68
25650;BME280;13505;45.196;5.696;2022-09-03T07:49:30;98976.59;;;22.02;75.29
25650;BME280;13505;45.196;5.696;2022-09-03T07:54:20;98978.34;;;22.39;72.22
25650;BME280;13505;45.196;5.696;2022-09-03T07:59:12;98994.09;;;22.34;72.22
25650;BME280;13505;45.196;5.696;2022-09-03T08:04:03;98984.91;;;22.91;70.62
25650;BME280;13505;45.196;5.696;2022-09-03T08:09:00;98991.78;;;23.48;68.01
25650;BME280;13505;45.196;5.696;2022-09-03T08:13:56;98995.28;;;23.75;67.71
25650;BME280;13505;45.196;5.696;2022-09-03T08:18:50;99007.47;;;23.61;67.77
25650;BME280;13505;45.196;5.696;2022-09-03T08:23:42;99005.03;;;23.50;67.62
25650;BME280;13505;45.196;5.696;2022-09-03T08:28:35;99005.94;;;23.93;66.44
25650;BME280;13505;45.196;5.696;2022-09-03T08:33:25;99009.28;;;24.14;66.17
25650;BME280;13505;45.196;5.696;2022-09-03T08:38:36;99016.78;;;24.45;63.08
25650;BME280;13505;45.196;5.696;2022-09-03T08:43:27;99017.97;;;23.46;65.89
25650;BME280;13505;45.196;5.696;2022-09-03T08:48:20;99029.94;;;23.78;66.09
25650;BME280;13505;45.196;5.696;2022-09-03T08:53:20;99032.97;;;23.75;64.11
25650;BME280;13505;45.196;5.696;2022-09-03T08:58:17;99038.06;;;24.64;62.65
25650;BME280;13505;45.196;5.696;2022-09-03T09:23:07;99017.91;;;25.60;56.71
25650;BME280;13505;45.196;5.696;2022-09-03T09:28:09;99021.78;;;26.14;56.07
25650;BME280;13505;45.196;5.696;2022-09-03T09:33:02;99027.13;;;26.62;54.53
25650;BME280;13505;45.196;5.696;2022-09-03T09:37:55;99012.28;;;26.26;54.05
25650;BME280;13505;45.196;5.696;2022-09-03T09:42:46;99010.06;;;26.61;53.43
25650;BME280;13505;45.196;5.696;2022-09-03T09:47:38;98994.63;;;26.94;53.24
25650;BME280;13505;45.196;5.696;2022-09-03T09:52:30;99009.97;;;26.46;54.62
25650;BME280;13505;45.196;5.696;2022-09-03T09:57:23;99001.91;;;25.98;54.51
25650;BME280;13505;45.196;5.696;2022-09-03T10:02:24;98999.22;;;27.85;51.67
25650;BME280;13505;45.196;5.696;2022-09-03T10:07:28;98978.00;;;28.62;48.48
25650;BME280;13505;45.196;5.696;2022-09-03T10:12:28;98979.94;;;28.47;47.45
25650;BME280;13505;45.196;5.696;2022-09-03T10:22:22;98980.22;;;28.15;45.86
25650;BME280;13505;45.196;5.696;2022-09-03T10:27:16;98976.78;;;28.43;48.71
25650;BME280;13505;45.196;5.696;2022-09-03T10:48:18;98965.81;;;26.78;47.91
25650;BME280;13505;45.196;5.696;2022-09-03T11:03:37;98963.53;;;26.11;49.39
25650;BME280;13505;45.196;5.696;2022-09-03T11:08:50;98964.91;;;25.42;51.16
25650;BME280;13505;45.196;5.696;2022-09-03T11:13:50;98965.00;;;25.82;49.64
25650;BME280;13505;45.196;5.696;2022-09-03T11:18:52;98953.00;;;25.85;50.31
25650;BME280;13505;45.196;5.696;2022-09-03T11:23:46;98950.97;;;25.87;49.06
25650;BME280;13505;45.196;5.696;2022-09-03T11:28:41;98946.09;;;25.82;49.82
25650;BME280;13505;45.196;5.696;2022-09-03T11:33:46;98947.31;;;26.43;49.93
25650;BME280;13505;45.196;5.696;2022-09-03T11:38:38;98940.94;;;26.82;47.25
25650;BME280;13505;45.196;5.696;2022-09-03T11:43:32;98938.81;;;27.16;47.59
25650;BME280;13505;45.196;5.696;2022-09-03T11:48:44;98938.19;;;26.67;48.66
25650;BME280;13505;45.196;5.696;2022-09-03T11:53:35;98937.28;;;26.98;48.29
25650;BME280;13505;45.196;5.696;2022-09-03T11:58:31;98929.75;;;26.85;48.02
25650;BME280;13505;45.196;5.696;2022-09-03T12:03:28;98937.41;;;26.35;48.25
25650;BME280;13505;45.196;5.696;2022-09-03T12:18:16;98919.28;;;26.82;48.35
25650;BME280;13505;45.196;5.696;2022-09-03T12:23:11;98920.47;;;26.88;47.90
25650;BME280;13505;45.196;5.696;2022-09-03T12:28:10;98914.34;;;27.39;49.06
25650;BME280;13505;45.196;5.696;2022-09-03T12:33:04;98922.38;;;26.32;48.72
25650;BME280;13505;45.196;5.696;2022-09-03T12:37:55;98906.44;;;27.23;50.23
25650;BME280;13505;45.196;5.696;2022-09-03T12:42:45;98907.41;;;26.92;48.35
25650;BME280;13505;45.196;5.696;2022-09-03T12:47:39;98907.06;;;27.10;48.32
25650;BME280;13505;45.196;5.696;2022-09-03T12:52:31;98903.06;;;27.51;49.09
25650;BME280;13505;45.196;5.696;2022-09-03T12:57:28;98898.97;;;27.85;48.70
25650;BME280;13505;45.196;5.696;2022-09-03T13:02:26;98894.41;;;27.55;46.42
25650;BME280;13505;45.196;5.696;2022-09-03T13:07:25;98887.81;;;27.95;46.15
25650;BME280;13505;45.196;5.696;2022-09-03T13:12:27;98880.25;;;28.27;45.48
25650;BME280;13505;45.196;5.696;2022-09-03T13:37:36;98857.25;;;27.64;44.66
25650;BME280;13505;45.196;5.696;2022-09-03T13:42:35;98846.69;;;27.91;45.07
25650;BME280;13505;45.196;5.696;2022-09-03T13:47:41;98836.72;;;27.92;46.98
25650;BME280;13505;45.196;5.696;2022-09-03T14:03:15;98818.06;;;28.04;45.87
25650;BME280;13505;45.196;5.696;2022-09-03T14:08:24;98803.28;;;27.84;45.83
25650;BME280;13505;45.196;5.696;2022-09-03T14:13:31;98796.81;;;28.07;47.41
25650;BME280;13505;45.196;5.696;2022-09-03T14:18:50;98787.09;;;28.13;44.87
25650;BME280;13505;45.196;5.696;2022-09-03T14:23:54;98790.91;;;27.45;47.39
25650;BME280;13505;45.196;5.696;2022-09-03T14:28:57;98780.56;;;27.49;47.70
25650;BME280;13505;45.196;5.696;2022-09-03T14:34:10;98772.44;;;27.64;45.18
25650;BME280;13505;45.196;5.696;2022-09-03T14:39:38;98774.47;;;27.10;46.81
25650;BME280;13505;45.196;5.696;2022-09-03T14:54:50;98753.16;;;27.95;46.59
25650;BME280;13505;45.196;5.696;2022-09-03T15:00:07;98762.84;;;28.05;46.68
25650;BME280;13505;45.196;5.696;2022-09-03T15:20:51;98757.28;;;27.91;45.72
25650;BME280;13505;45.196;5.696;2022-09-03T15:26:16;98761.03;;;27.90;46.11
25650;BME280;13505;45.196;5.696;2022-09-03T15:31:39;98743.78;;;27.98;46.23
25650;BME280;13505;45.196;5.696;2022-09-03T15:36:40;98738.69;;;28.10;46.49
25650;BME280;13505;45.196;5.696;2022-09-03T15:42:10;98746.44;;;28.13;46.18
25650;BME280;13505;45.196;5.696;2022-09-03T15:47:06;98741.94;;;28.20;46.18
25650;BME280;13505;45.196;5.696;2022-09-03T15:52:14;98748.25;;;28.27;45.48
25650;BME280;13505;45.196;5.696;2022-09-03T15:57:16;98747.47;;;28.34;44.79
25650;BME280;13505;45.196;5.696;2022-09-03T16:02:32;98747.47;;;28.34;46.00
25650;BME280;13505;45.196;5.696;2022-09-03T16:07:30;98741.81;;;28.28;44.30
25650;BME280;13505;45.196;5.696;2022-09-03T16:17:54;98727.16;;;28.01;46.41
25650;BME280;13505;45.196;5.696;2022-09-03T16:23:11;98724.50;;;28.08;45.61
25650;BME280;13505;45.196;5.696;2022-09-03T16:38:33;98711.75;;;27.80;45.80
25650;BME280;13505;45.196;5.696;2022-09-03T16:48:30;98705.69;;;27.56;46.88
25650;BME280;13505;45.196;5.696;2022-09-03T16:53:30;98711.31;;;27.39;47.46
25650;BME280;13505;45.196;5.696;2022-09-03T16:58:52;98718.06;;;27.28;47.37
25650;BME280;13505;45.196;5.696;2022-09-03T17:19:35;98773.81;;;27.08;48.83
25650;BME280;13505;45.196;5.696;2022-09-03T17:24:41;98777.47;;;27.00;49.28
25650;BME280;13505;45.196;5.696;2022-09-03T17:30:07;98775.28;;;26.80;49.93
25650;BME280;13505;45.196;5.696;2022-09-03T17:40:17;98796.03;;;26.65;50.49
25650;BME280;13505;45.196;5.696;2022-09-03T17:45:22;98808.06;;;26.47;50.98
25650;BME280;13505;45.196;5.696;2022-09-03T17:50:26;98809.59;;;26.26;51.04
25650;BME280;13505;45.196;5.696;2022-09-03T17:55:36;98815.69;;;26.20;51.23
25650;BME280;13505;45.196;5.696;2022-09-03T18:01:26;98820.59;;;26.16;51.16
25650;BME280;13505;45.196;5.696;2022-09-03T18:05:56;98823.28;;;26.16;50.15
25650;BME280;13505;45.196;5.696;2022-09-03T18:11:01;98821.97;;;26.21;50.39
25650;BME280;13505;45.196;5.696;2022-09-03T18:16:26;98850.41;;;26.08;51.26
25650;BME280;13505;45.196;5.696;2022-09-03T18:21:21;98864.88;;;25.84;52.98
25650;BME280;13505;45.196;5.696;2022-09-03T18:26:35;98885.28;;;25.55;55.17
25650;BME280;13505;45.196;5.696;2022-09-03T18:31:47;98902.84;;;25.50;54.88
25650;BME280;13505;45.196;5.696;2022-09-03T18:36:57;98935.59;;;25.39;54.94
25650;BME280;13505;45.196;5.696;2022-09-03T18:42:21;98976.69;;;24.42;50.96
25650;BME280;13505;45.196;5.696;2022-09-03T18:47:54;99010.19;;;23.96;54.00
25650;BME280;13505;45.196;5.696;2022-09-03T18:53:17;99023.31;;;23.02;55.41
25650;BME280;13505;45.196;5.696;2022-09-03T19:04:51;99065.19;;;23.04;52.89
25650;BME280;13505;45.196;5.696;2022-09-03T19:10:07;99087.19;;;22.15;59.12
25650;BME280;13505;45.196;5.696;2022-09-03T19:15:37;99138.28;;;21.07;67.73
25650;BME280;13505;45.196;5.696;2022-09-03T19:26:45;99161.16;;;20.60;73.47
25650;BME280;13505;45.196;5.696;2022-09-03T19:31:59;99146.34;;;20.56;76.58
25650;BME280;13505;45.196;5.696;2022-09-03T19:42:48;99208.03;;;21.17;81.38
25650;BME280;13505;45.196;5.696;2022-09-03T19:53:33;99223.16;;;21.28;81.27
25650;BME280;13505;45.196;5.696;2022-09-03T19:58:47;99247.47;;;21.36;81.79
25650;BME280;13505;45.196;5.696;2022-09-03T20:04:01;99235.69;;;21.08;84.92
25650;BME280;13505;45.196;5.696;2022-09-03T20:09:12;99213.53;;;21.05;83.19
25650;BME280;13505;45.196;5.696;2022-09-03T20:14:23;99213.19;;;20.89;86.73
25650;BME280;13505;45.196;5.696;2022-09-03T20:24:41;99202.38;;;21.10;85.58
25650;BME280;13505;45.196;5.696;2022-09-03T20:34:52;99221.78;;;20.61;92.46
25650;BME280;13505;45.196;5.696;2022-09-03T20:45:21;99217.53;;;20.59;93.13
25650;BME280;13505;45.196;5.696;2022-09-03T20:55:41;99225.44;;;20.82;89.60
25650;BME280;13505;45.196;5.696;2022-09-03T21:05:49;99230.13;;;20.68;89.60
25650;BME280;13505;45.196;5.696;2022-09-03T21:10:57;99243.28;;;20.71;87.65
25650;BME280;13505;45.196;5.696;2022-09-03T21:15:54;99258.09;;;20.75;88.91
25650;BME280;13505;45.196;5.696;2022-09-03T21:20:53;99279.47;;;20.66;89.67
25650;BME280;13505;45.196;5.696;2022-09-03T21:25:52;99310.41;;;20.48;94.39
25650;BME280;13505;45.196;5.696;2022-09-03T21:30:49;99317.53;;;20.17;97.26
25650;BME280;13505;45.196;5.696;2022-09-03T21:35:46;99323.31;;;20.01;98.24
25650;BME280;13505;45.196;5.696;2022-09-03T21:40:46;99343.28;;;20.29;96.25
25650;BME280;13505;45.196;5.696;2022-09-03T21:45:52;99345.66;;;20.65;91.87
25650;BME280;13505;45.196;5.696;2022-09-03T21:50:55;99343.66;;;21.10;86.77
